createdAt,value
2019-04-04T00:01:11.493Z,26.75
2019-04-04T00:03:42.901Z,25.97
2019-04-04T00:06:14.206Z,26.68
2019-04-04T00:08:45.543Z,26.52
2019-04-04T00:11:16.706Z,28.27
2019-04-04T00:13:48.701Z,26.85
2019-04-04T00:16:20.735Z,28.30
2019-04-04T00:18:52.732Z,30.62
2019-04-04T00:21:26.170Z,30.70
2019-04-04T00:23:58.092Z,31.27
2019-04-04T00:26:32.042Z,31.20
2019-04-04T00:29:06.487Z,27.05
2019-04-04T00:31:39.056Z,26.15
2019-04-04T00:34:10.416Z,25.72
2019-04-04T00:36:41.989Z,23.40
2019-04-04T00:39:14.045Z,22.67
2019-04-04T00:41:54.792Z,23.18
2019-04-04T00:44:30.698Z,22.70
2019-04-04T00:47:03.785Z,22.35
2019-04-04T00:49:35.554Z,23.05
2019-04-04T00:54:47.309Z,22.17
2019-04-04T00:57:31.017Z,22.48
2019-04-04T01:00:02.604Z,24.02
2019-04-04T01:02:49.665Z,22.13
2019-04-04T01:05:24.151Z,20.80
2019-04-04T01:07:55.583Z,19.75
2019-04-04T01:10:27.014Z,19.30
2019-04-04T01:12:58.631Z,20.55
2019-04-04T01:15:36.144Z,19.73
2019-04-04T01:18:07.620Z,21.07
2019-04-04T01:20:42.062Z,20.68
2019-04-04T01:23:13.685Z,19.50
2019-04-04T01:25:45.186Z,22.65
2019-04-04T01:28:17.618Z,23.07
2019-04-04T01:30:49.014Z,24.27
2019-04-04T01:33:21.517Z,22.67
2019-04-04T01:35:57.654Z,23.40
2019-04-04T01:38:38.362Z,19.40
2019-04-04T01:41:15.915Z,16.67
2019-04-04T01:43:50.077Z,17.80
2019-04-04T01:46:21.761Z,17.52
2019-04-04T01:48:53.276Z,17.95
2019-04-04T01:51:25.425Z,17.75
2019-04-04T01:53:59.013Z,17.17
2019-04-04T01:56:41.370Z,17.05
2019-04-04T01:59:32.636Z,17.12
2019-04-04T02:02:07.088Z,17.52
2019-04-04T02:04:40.149Z,18.37
2019-04-04T02:07:11.712Z,18.73
2019-04-04T02:09:44.193Z,19.12
2019-04-04T02:12:15.542Z,21.48
2019-04-04T02:14:46.770Z,21.27
2019-04-04T02:17:18.119Z,21.37
2019-04-04T02:19:49.427Z,20.27
2019-04-04T02:22:22.015Z,20.43
2019-04-04T02:24:53.977Z,19.85
2019-04-04T02:27:25.406Z,20.02
2019-04-04T02:29:56.857Z,19.37
2019-04-04T02:32:29.416Z,18.67
2019-04-04T02:35:01.694Z,18.92
2019-04-04T02:37:33.012Z,19.17
2019-04-04T02:40:08.898Z,20.27
2019-04-04T02:42:39.460Z,25.55
2019-04-04T02:45:10.752Z,32.23
2019-04-04T02:47:41.983Z,31.12
2019-04-04T02:50:13.452Z,30.55
2019-04-04T02:52:46.201Z,29.32
2019-04-04T02:55:17.685Z,26.97
2019-04-04T02:57:48.959Z,25.88
2019-04-04T03:00:20.257Z,21.93
2019-04-04T03:02:51.628Z,22.80
2019-04-04T03:05:22.686Z,22.37
2019-04-04T03:07:53.811Z,23.92
2019-04-04T03:10:25.169Z,29.60
2019-04-04T03:12:58.640Z,31.30
2019-04-04T03:15:29.709Z,31.30
2019-04-04T03:18:04.122Z,25.50
2019-04-04T03:20:33.880Z,22.87
2019-04-04T03:23:05.870Z,21.77
2019-04-04T03:25:37.746Z,22.48
2019-04-04T03:28:08.882Z,21.77
2019-04-04T03:30:41.363Z,26.95
2019-04-04T03:33:13.106Z,29.23
2019-04-04T03:35:45.297Z,25.27
2019-04-04T03:38:16.572Z,26.77
2019-04-04T03:40:48.255Z,25.43
2019-04-04T03:43:19.471Z,25.95
2019-04-04T03:45:50.717Z,27.07
2019-04-04T03:48:23.059Z,28.50
2019-04-04T03:50:57.154Z,30.57
2019-04-04T03:53:28.332Z,29.35
2019-04-04T03:56:01.228Z,27.10
2019-04-04T03:58:34.608Z,24.95
2019-04-04T04:01:06.016Z,21.77
2019-04-04T04:03:38.476Z,22.10
2019-04-04T04:06:10.379Z,23.77
2019-04-04T04:08:41.869Z,22.93
2019-04-04T04:11:13.421Z,23.57
2019-04-04T04:13:48.932Z,22.45
2019-04-04T04:16:17.625Z,20.32
2019-04-04T04:18:54.030Z,20.90
2019-04-04T04:21:23.230Z,20.75
2019-04-04T04:23:59.798Z,20.02
2019-04-04T04:26:34.131Z,20.40
2019-04-04T04:29:05.276Z,21.05
2019-04-04T04:31:37.030Z,19.12
2019-04-04T04:34:08.456Z,19.00
2019-04-04T04:36:41.132Z,18.70
2019-04-04T04:39:12.544Z,18.87
2019-04-04T04:41:45.099Z,18.70
2019-04-04T04:44:17.290Z,18.42
2019-04-04T04:46:51.071Z,19.42
2019-04-04T04:49:23.560Z,19.95
2019-04-04T04:51:55.225Z,19.92
2019-04-04T04:54:28.026Z,19.37
2019-04-04T04:57:04.796Z,21.93
2019-04-04T04:59:37.846Z,21.68
2019-04-04T05:02:09.504Z,22.77
2019-04-04T05:04:40.962Z,21.05
2019-04-04T05:07:12.130Z,20.17
2019-04-04T05:09:45.025Z,19.70
2019-04-04T05:12:17.397Z,19.65
2019-04-04T05:14:48.750Z,18.95
2019-04-04T05:17:19.999Z,19.00
2019-04-04T05:19:51.285Z,19.25
2019-04-04T05:22:22.545Z,19.98
2019-04-04T05:25:08.001Z,18.62
2019-04-04T05:27:27.187Z,14.35
2019-04-04T05:29:58.541Z,19.37
2019-04-04T05:32:29.948Z,19.10
2019-04-04T05:35:02.556Z,17.17
2019-04-04T05:37:37.968Z,20.23
2019-04-04T05:42:41.745Z,20.72
2019-04-04T05:45:14.460Z,19.92
2019-04-04T05:47:46.271Z,19.00
2019-04-04T05:50:17.464Z,18.25
2019-04-04T05:52:53.487Z,16.77
2019-04-04T05:55:24.959Z,17.52
2019-04-04T05:57:56.059Z,18.20
2019-04-04T06:00:28.236Z,17.87
2019-04-04T06:03:00.481Z,18.87
2019-04-04T06:05:32.074Z,19.67
2019-04-04T06:08:08.187Z,18.82
2019-04-04T06:10:39.206Z,18.30
2019-04-04T06:13:10.350Z,18.73
2019-04-04T06:15:42.081Z,19.35
2019-04-04T06:18:13.278Z,19.65
2019-04-04T06:20:44.454Z,19.80
2019-04-04T06:23:16.040Z,20.80
2019-04-04T06:25:47.618Z,19.82
2019-04-04T06:28:19.276Z,19.23
2019-04-04T06:30:53.308Z,24.95
2019-04-04T06:36:00.210Z,23.12
2019-04-04T06:38:33.508Z,23.52
2019-04-04T06:41:05.954Z,19.82
2019-04-04T06:43:37.745Z,21.15
2019-04-04T06:46:10.701Z,18.75
2019-04-04T06:48:42.338Z,18.10
2019-04-04T06:51:14.861Z,19.23
2019-04-04T06:53:47.082Z,19.27
2019-04-04T06:56:19.200Z,20.97
2019-04-04T06:58:50.830Z,20.92
2019-04-04T07:01:25.318Z,22.37
2019-04-04T07:03:59.525Z,16.70
2019-04-04T07:06:33.236Z,17.33
2019-04-04T07:09:07.337Z,16.80
2019-04-04T07:11:38.671Z,18.27
2019-04-04T07:14:10.491Z,18.25
2019-04-04T07:16:41.792Z,17.73
2019-04-04T07:19:15.035Z,18.80
2019-04-04T07:21:46.457Z,15.72
2019-04-04T07:24:17.687Z,16.60
2019-04-04T07:26:49.807Z,16.57
2019-04-04T07:29:23.012Z,15.53
2019-04-04T07:31:57.075Z,17.23
2019-04-04T07:34:28.523Z,16.90
2019-04-04T07:37:00.149Z,18.00
2019-04-04T07:39:32.823Z,35.78
2019-04-04T07:42:04.368Z,19.00
2019-04-04T07:44:35.628Z,23.18
2019-04-04T07:47:06.846Z,43.60
2019-04-04T07:49:40.187Z,16.07
2019-04-04T07:52:13.703Z,19.73
2019-04-04T07:54:47.867Z,16.67
2019-04-04T07:57:21.077Z,19.27
2019-04-04T07:59:52.455Z,19.37
2019-04-04T08:02:23.995Z,26.33
2019-04-04T08:04:57.443Z,76.22
2019-04-04T08:07:37.079Z,15.20
2019-04-04T08:10:19.982Z,13.55
2019-04-04T08:12:43.161Z,11.22
2019-04-04T08:15:21.061Z,12.35
2019-04-04T08:17:54.549Z,10.03
2019-04-04T08:20:45.977Z,8.35
2019-04-04T08:23:20.123Z,7.22
2019-04-04T08:25:52.971Z,10.30
2019-04-04T08:28:28.833Z,11.08
2019-04-04T08:31:02.143Z,11.80
2019-04-04T08:33:34.336Z,10.03
2019-04-04T08:36:06.570Z,9.80
2019-04-04T08:38:39.108Z,9.88
2019-04-04T08:41:12.476Z,9.80
2019-04-04T08:43:48.076Z,9.88
2019-04-04T08:46:20.234Z,10.35
2019-04-04T08:48:52.431Z,10.78
2019-04-04T08:51:23.611Z,7.10
2019-04-04T08:53:55.838Z,7.55
2019-04-04T08:56:27.322Z,6.78
2019-04-04T08:58:58.650Z,9.58
2019-04-04T09:01:30.994Z,7.87
2019-04-04T09:04:02.240Z,7.15
2019-04-04T09:06:34.549Z,6.97
2019-04-04T09:09:06.486Z,8.58
2019-04-04T09:11:39.884Z,6.95
2019-04-04T09:14:12.524Z,6.90
2019-04-04T09:16:45.604Z,7.80
2019-04-04T09:19:19.082Z,7.67
2019-04-04T09:21:50.600Z,8.10
2019-04-04T09:24:23.333Z,8.45
2019-04-04T09:26:54.796Z,8.58
2019-04-04T09:29:26.167Z,7.85
2019-04-04T09:31:57.628Z,8.90
2019-04-04T09:34:29.248Z,8.48
2019-04-04T09:37:01.723Z,8.78
2019-04-04T09:39:32.865Z,9.83
2019-04-04T09:42:07.274Z,9.43
2019-04-04T09:44:40.122Z,11.22
2019-04-04T09:47:12.853Z,11.40
2019-04-04T09:49:44.164Z,16.90
2019-04-04T09:52:15.566Z,10.20
2019-04-04T09:54:48.780Z,9.63
2019-04-04T09:59:53.685Z,8.70
2019-04-04T10:02:27.428Z,8.25
2019-04-04T10:04:58.633Z,8.05
2019-04-04T10:07:29.801Z,8.23
2019-04-04T10:10:01.090Z,8.28
2019-04-04T10:12:32.899Z,8.30
2019-04-04T10:15:06.760Z,7.62
2019-04-04T10:17:38.015Z,8.30
2019-04-04T10:20:09.216Z,9.10
2019-04-04T10:22:40.500Z,7.95
2019-04-04T10:25:11.688Z,8.15
2019-04-04T10:27:42.962Z,9.10
2019-04-04T10:30:14.171Z,9.35
2019-04-04T10:32:45.283Z,8.50
2019-04-04T10:35:16.527Z,8.48
2019-04-04T10:37:48.007Z,9.05
2019-04-04T10:40:20.350Z,9.13
2019-04-04T10:42:55.635Z,8.70
2019-04-04T10:45:26.808Z,9.38
2019-04-04T10:47:58.543Z,7.90
2019-04-04T10:50:30.304Z,9.23
2019-04-04T10:53:01.782Z,8.10
2019-04-04T10:58:07.203Z,19.35
2019-04-04T11:00:40.316Z,8.83
2019-04-04T11:03:11.608Z,8.65
2019-04-04T11:05:42.687Z,7.47
2019-04-04T11:08:14.950Z,7.80
2019-04-04T11:10:47.153Z,7.70
2019-04-04T11:13:18.361Z,9.08
2019-04-04T11:15:49.881Z,8.40
2019-04-04T11:18:24.812Z,9.05
2019-04-04T11:20:55.921Z,8.55
2019-04-04T11:23:27.353Z,8.05
2019-04-04T11:25:59.047Z,7.75
2019-04-04T11:28:33.172Z,8.30
2019-04-04T11:31:04.315Z,8.53
2019-04-04T11:33:36.094Z,8.03
2019-04-04T11:36:07.204Z,7.55
2019-04-04T11:38:39.563Z,7.55
2019-04-04T11:41:10.751Z,7.50
2019-04-04T11:43:44.110Z,7.65
2019-04-04T11:46:15.423Z,7.60
2019-04-04T11:48:48.872Z,6.83
2019-04-04T11:51:22.539Z,7.12
2019-04-04T11:53:54.036Z,6.80
2019-04-04T11:56:27.620Z,6.75
2019-04-04T11:59:00.947Z,12.18
2019-04-04T12:01:36.795Z,7.20
2019-04-04T12:04:08.135Z,7.75
2019-04-04T12:06:41.326Z,7.33
2019-04-04T12:09:12.701Z,7.33
2019-04-04T12:11:44.093Z,7.10
2019-04-04T12:14:16.669Z,7.37
2019-04-04T12:16:48.671Z,7.33
2019-04-04T12:19:19.979Z,6.40
2019-04-04T12:21:53.526Z,7.17
2019-04-04T12:24:24.674Z,7.03
2019-04-04T12:26:58.444Z,7.42
2019-04-04T12:32:01.396Z,7.95
2019-04-04T12:34:34.205Z,7.37
2019-04-04T12:37:06.492Z,7.72
2019-04-04T12:39:39.461Z,7.78
2019-04-04T12:42:10.878Z,7.40
2019-04-04T12:44:43.863Z,7.75
2019-04-04T12:47:15.440Z,7.92
2019-04-04T12:49:48.857Z,7.97
2019-04-04T12:52:21.054Z,7.92
2019-04-04T12:54:52.380Z,7.65
2019-04-04T12:57:23.885Z,7.03
2019-04-04T12:59:56.464Z,6.70
2019-04-04T13:02:28.068Z,19.75
2019-04-04T13:04:59.992Z,6.95
2019-04-04T13:10:11.894Z,6.60
2019-04-04T13:12:46.875Z,7.20
2019-04-04T13:15:20.812Z,7.78
2019-04-04T13:17:51.950Z,10.48
2019-04-04T13:20:23.276Z,6.83
2019-04-04T13:22:54.626Z,6.37
2019-04-04T13:25:25.909Z,13.65
2019-04-04T13:27:57.266Z,8.55
2019-04-04T13:30:30.997Z,8.10
2019-04-04T13:33:04.139Z,8.68
2019-04-04T13:35:37.932Z,8.48
2019-04-04T13:38:09.917Z,7.37
2019-04-04T13:40:45.798Z,7.67
2019-04-04T13:43:15.614Z,7.28
2019-04-04T13:45:48.695Z,7.42
2019-04-04T13:48:21.161Z,8.23
2019-04-04T13:50:52.918Z,8.38
2019-04-04T13:53:25.445Z,8.68
2019-04-04T13:55:59.140Z,9.95
2019-04-04T13:58:31.064Z,7.25
2019-04-04T14:01:02.277Z,16.07
2019-04-04T14:03:33.623Z,9.60
2019-04-04T14:06:05.858Z,6.75
2019-04-04T14:08:39.131Z,7.15
2019-04-04T14:11:10.671Z,7.25
2019-04-04T14:13:43.001Z,8.30
2019-04-04T14:16:14.581Z,7.87
2019-04-04T14:18:46.228Z,8.68
2019-04-04T14:21:17.366Z,7.30
2019-04-04T14:23:52.270Z,7.87
2019-04-04T14:26:25.277Z,7.78
2019-04-04T14:28:58.254Z,7.70
2019-04-04T14:31:31.134Z,7.35
2019-04-04T14:34:02.429Z,7.22
2019-04-04T14:36:34.569Z,7.70
2019-04-04T14:39:07.537Z,7.85
2019-04-04T14:44:11.384Z,7.95
2019-04-04T14:46:42.915Z,6.97
2019-04-04T14:49:15.933Z,8.15
2019-04-04T14:51:47.863Z,7.90
2019-04-04T14:54:21.921Z,7.80
2019-04-04T14:56:54.301Z,7.97
2019-04-04T14:59:27.866Z,8.30
2019-04-04T15:02:05.667Z,8.90
2019-04-04T15:04:36.812Z,8.15
2019-04-04T15:07:08.077Z,9.30
2019-04-04T15:09:39.587Z,9.38
2019-04-04T15:12:11.163Z,8.80
2019-04-04T15:14:44.669Z,8.50
2019-04-04T15:17:15.921Z,10.23
2019-04-04T15:19:47.054Z,10.08
2019-04-04T15:22:18.631Z,9.80
2019-04-04T15:24:59.808Z,9.93
2019-04-04T15:27:35.413Z,10.28
2019-04-04T15:30:07.640Z,8.25
2019-04-04T15:32:39.630Z,7.92
2019-04-04T15:35:16.267Z,8.05
2019-04-04T15:37:47.350Z,9.33
2019-04-04T15:40:19.811Z,7.55
2019-04-04T15:42:51.098Z,9.40
2019-04-04T15:45:22.325Z,15.10
2019-04-04T15:47:58.012Z,7.00
2019-04-04T15:50:31.117Z,7.10
2019-04-04T15:53:02.578Z,6.58
2019-04-04T15:55:35.317Z,6.83
2019-04-04T15:58:06.507Z,7.42
2019-04-04T16:00:37.558Z,7.25
2019-04-04T16:03:08.673Z,7.60
2019-04-04T16:05:41.104Z,6.97
2019-04-04T16:08:12.931Z,7.12
2019-04-04T16:10:44.547Z,8.25
2019-04-04T16:13:15.878Z,10.35
2019-04-04T16:15:53.651Z,7.83
2019-04-04T16:18:24.728Z,8.23
2019-04-04T16:20:55.775Z,9.18
2019-04-04T16:23:26.832Z,8.58
2019-04-04T16:25:59.179Z,8.98
2019-04-04T16:28:31.094Z,11.65
2019-04-04T16:31:04.611Z,12.28
2019-04-04T16:33:36.214Z,15.25
2019-04-04T16:36:07.415Z,13.75
2019-04-04T16:38:38.813Z,12.85
2019-04-04T16:41:10.078Z,14.55
2019-04-04T16:43:42.302Z,17.77
2019-04-04T16:46:13.374Z,17.32
2019-04-04T16:48:46.542Z,18.00
2019-04-04T16:51:17.620Z,17.53
2019-04-04T16:53:49.159Z,16.50
2019-04-04T16:56:20.587Z,16.97
2019-04-04T16:58:51.942Z,16.40
2019-04-04T17:01:23.351Z,17.42
2019-04-04T17:04:01.914Z,17.00
2019-04-04T17:06:29.608Z,14.90
2019-04-04T17:09:01.832Z,16.00
2019-04-04T17:11:34.538Z,18.32
2019-04-04T17:14:11.081Z,22.42
2019-04-04T17:16:42.160Z,24.95
2019-04-04T17:19:13.575Z,27.48
2019-04-04T17:21:44.796Z,27.30
2019-04-04T17:24:16.468Z,31.85
2019-04-04T17:26:48.667Z,36.28
2019-04-04T17:29:19.764Z,34.60
2019-04-04T17:31:51.484Z,38.67
2019-04-04T17:34:22.670Z,37.55
2019-04-04T17:36:54.143Z,39.45
2019-04-04T17:39:25.566Z,41.02
2019-04-04T17:41:56.962Z,38.02
2019-04-04T17:44:28.534Z,40.00
2019-04-04T17:46:59.863Z,41.45
2019-04-04T17:49:32.737Z,40.30
2019-04-04T17:52:04.538Z,40.50
2019-04-04T17:54:36.392Z,43.65
2019-04-04T17:57:07.599Z,45.03
2019-04-04T17:59:39.077Z,46.37
2019-04-04T18:02:10.546Z,49.05
2019-04-04T18:04:48.121Z,46.83
2019-04-04T18:07:14.926Z,47.62
2019-04-04T18:09:46.455Z,52.10
2019-04-04T18:12:19.320Z,47.43
2019-04-04T18:14:52.153Z,49.83
2019-04-04T18:17:25.104Z,50.10
2019-04-04T18:19:56.701Z,49.85
2019-04-04T18:22:28.087Z,47.65
2019-04-04T18:24:59.640Z,64.00
2019-04-04T18:27:32.018Z,56.60
2019-04-04T18:30:05.031Z,49.45
2019-04-04T18:32:36.297Z,48.33
2019-04-04T18:35:11.712Z,45.85
2019-04-04T18:37:43.043Z,50.95
2019-04-04T18:40:15.976Z,50.48
2019-04-04T18:42:53.004Z,59.27
2019-04-04T18:45:22.120Z,64.80
2019-04-04T18:47:53.682Z,63.13
2019-04-04T18:50:26.852Z,65.17
2019-04-04T18:52:58.831Z,67.17
2019-04-04T18:55:30.210Z,64.97
2019-04-04T18:58:01.532Z,63.48
2019-04-04T19:00:32.973Z,66.40
2019-04-04T19:03:05.756Z,68.83
2019-04-04T19:05:36.913Z,62.93
2019-04-04T19:08:08.561Z,67.55
2019-04-04T19:10:40.429Z,64.72
2019-04-04T19:13:12.385Z,63.00
2019-04-04T19:15:43.736Z,66.92
2019-04-04T19:18:14.981Z,66.45
2019-04-04T19:20:46.424Z,68.95
2019-04-04T19:23:17.806Z,65.05
2019-04-04T19:25:49.325Z,72.80
2019-04-04T19:28:20.733Z,104.15
2019-04-04T19:30:52.617Z,76.28
2019-04-04T19:33:23.997Z,102.10
2019-04-04T19:35:56.242Z,110.68
2019-04-04T19:38:27.344Z,78.30
2019-04-04T19:40:58.796Z,75.30
2019-04-04T19:43:30.677Z,63.68
2019-04-04T19:46:02.221Z,71.47
2019-04-04T19:48:33.458Z,61.92
2019-04-04T19:51:05.745Z,47.85
2019-04-04T19:53:37.356Z,57.03
2019-04-04T19:56:10.867Z,49.25
2019-04-04T20:01:13.716Z,41.05
2019-04-04T20:03:45.101Z,40.17
2019-04-04T20:06:16.335Z,34.05
2019-04-04T20:08:50.905Z,34.13
2019-04-04T20:11:20.337Z,36.20
2019-04-04T20:13:52.196Z,51.25
2019-04-04T20:16:23.505Z,45.38
2019-04-04T20:18:55.693Z,47.90
2019-04-04T20:21:26.985Z,47.58
2019-04-04T20:23:59.090Z,45.78
2019-04-04T20:26:30.340Z,41.53
2019-04-04T20:29:01.785Z,38.42
2019-04-04T20:31:33.840Z,43.85
2019-04-04T20:34:06.301Z,44.35
2019-04-04T20:36:39.678Z,38.10
2019-04-04T20:39:10.786Z,37.83
2019-04-04T20:41:42.082Z,38.53
2019-04-04T20:44:13.218Z,36.98
2019-04-04T20:46:46.129Z,37.17
2019-04-04T20:49:17.525Z,35.85
2019-04-04T20:51:49.552Z,31.55
2019-04-04T20:54:20.796Z,36.50
2019-04-04T20:56:51.947Z,47.85
2019-04-04T20:59:24.620Z,55.00
2019-04-04T21:01:55.748Z,48.63
2019-04-04T21:04:26.903Z,54.40
2019-04-04T21:06:57.996Z,52.25
2019-04-04T21:09:30.646Z,45.45
2019-04-04T21:12:02.738Z,44.30
2019-04-04T21:14:33.943Z,49.30
2019-04-04T21:17:05.219Z,45.45
2019-04-04T21:19:36.312Z,43.45
2019-04-04T21:22:07.536Z,39.78
2019-04-04T21:24:38.364Z,41.08
2019-04-04T21:27:09.510Z,39.58
2019-04-04T21:29:41.639Z,40.73
2019-04-04T21:32:12.756Z,38.38
2019-04-04T21:34:45.630Z,40.17
2019-04-04T21:37:16.712Z,38.90
2019-04-04T21:39:47.856Z,40.80
2019-04-04T21:42:18.971Z,42.00
2019-04-04T21:44:50.051Z,58.10
2019-04-04T21:47:21.151Z,51.48
2019-04-04T21:49:53.832Z,47.67
2019-04-04T21:52:25.900Z,44.63
2019-04-04T21:54:57.088Z,44.63
2019-04-04T21:57:29.015Z,45.75
2019-04-04T22:00:00.221Z,43.90
2019-04-04T22:02:32.454Z,44.58
2019-04-04T22:05:05.102Z,47.03
2019-04-04T22:07:36.248Z,47.55
2019-04-04T22:10:08.279Z,51.73
2019-04-04T22:12:39.477Z,49.65
2019-04-04T22:15:10.683Z,48.70
2019-04-04T22:17:41.608Z,49.08
2019-04-04T22:20:13.547Z,50.83
2019-04-04T22:22:44.814Z,47.03
2019-04-04T22:25:16.811Z,47.30
2019-04-04T22:27:47.879Z,49.90
2019-04-04T22:30:19.110Z,47.60
2019-04-04T22:32:50.222Z,51.60
2019-04-04T22:35:21.329Z,48.00
2019-04-04T22:37:53.439Z,48.35
2019-04-04T22:40:24.591Z,48.33
2019-04-04T22:42:55.726Z,45.55
2019-04-04T22:45:27.668Z,45.83
2019-04-04T22:47:58.882Z,44.27
2019-04-04T22:50:30.025Z,44.75
2019-04-04T22:53:02.090Z,43.25
2019-04-04T22:55:33.257Z,48.13
2019-04-04T22:58:04.681Z,56.20
2019-04-04T23:00:36.795Z,51.13
2019-04-04T23:03:08.126Z,48.55
2019-04-04T23:05:39.620Z,43.08
2019-04-04T23:08:10.825Z,41.20
2019-04-04T23:10:41.957Z,48.75
2019-04-04T23:13:13.219Z,51.25
2019-04-04T23:15:44.392Z,51.63
2019-04-04T23:18:15.622Z,48.98
2019-04-04T23:20:46.832Z,50.90
2019-04-04T23:23:19.905Z,52.45
2019-04-04T23:25:50.897Z,49.67
2019-04-04T23:28:21.975Z,48.92
2019-04-04T23:30:52.961Z,48.23
2019-04-04T23:33:24.168Z,54.03
2019-04-04T23:35:55.231Z,54.42
2019-04-04T23:38:26.364Z,51.48
2019-04-04T23:40:57.469Z,58.33
2019-04-04T23:43:28.902Z,57.15
2019-04-04T23:46:00.375Z,63.58
2019-04-04T23:48:31.515Z,45.58
2019-04-04T23:51:02.784Z,45.85
2019-04-04T23:53:34.992Z,43.35
2019-04-04T23:56:06.797Z,41.77
2019-04-04T23:58:38.222Z,45.40
